sensor_id;sensor_type;location;lat;lon;timestamp;pressure;altitude;pressure_sealevel;temperature;humidity
54453;BME280;40363;52.270;10.546;2022-08-19T00:01:25;75063.13;;;-147.06;72.36
54453;BME280;40363;52.270;10.546;2022-08-19T00:03:54;75056.94;;;-147.06;72.08
54453;BME280;40363;52.270;10.546;2022-08-19T00:06:22;75050.78;;;-147.06;72.19
54453;BME280;40363;52.270;10.546;2022-08-19T00:08:49;75059.00;;;-147.06;72.31
54453;BME280;40363;52.270;10.546;2022-08-19T00:11:16;75044.63;;;-147.06;72.03
54453;BME280;40363;52.270;10.546;2022-08-19T00:13:43;75050.78;;;-147.06;72.05
54453;BME280;40363;52.270;10.546;2022-08-19T00:16:11;75052.84;;;-147.06;72.28
54453;BME280;40363;52.270;10.546;2022-08-19T00:18:37;75056.94;;;-147.06;72.12
54453;BME280;40363;52.270;10.546;2022-08-19T00:21:04;75071.34;;;-147.06;72.21
54453;BME280;40363;52.270;10.546;2022-08-19T00:23:34;75071.34;;;-147.06;72.44
54453;BME280;40363;52.270;10.546;2022-08-19T00:26:02;75071.34;;;-147.06;72.37
54453;BME280;40363;52.270;10.546;2022-08-19T00:28:30;75073.38;;;-147.06;72.09
54453;BME280;40363;52.270;10.546;2022-08-19T00:30:57;75071.34;;;-147.06;72.29
54453;BME280;40363;52.270;10.546;2022-08-19T00:33:27;75063.13;;;-147.06;72.29
54453;BME280;40363;52.270;10.546;2022-08-19T00:35:55;75079.56;;;-147.06;72.36
54453;BME280;40363;52.270;10.546;2022-08-19T00:38:21;75087.78;;;-147.06;72.72
54453;BME280;40363;52.270;10.546;2022-08-19T00:40:49;75071.34;;;-147.06;72.10
54453;BME280;40363;52.270;10.546;2022-08-19T00:43:19;75079.56;;;-147.06;72.21
54453;BME280;40363;52.270;10.546;2022-08-19T00:45:46;75083.66;;;-147.06;72.01
54453;BME280;40363;52.270;10.546;2022-08-19T00:48:15;75087.78;;;-147.06;71.83
54453;BME280;40363;52.270;10.546;2022-08-19T00:50:43;75091.88;;;-147.06;72.11
54453;BME280;40363;52.270;10.546;2022-08-19T00:53:11;75083.66;;;-147.06;72.04
54453;BME280;40363;52.270;10.546;2022-08-19T00:55:40;75083.66;;;-147.06;71.63
54453;BME280;40363;52.270;10.546;2022-08-19T00:58:12;75096.00;;;-147.06;71.95
54453;BME280;40363;52.270;10.546;2022-08-19T01:00:40;75096.00;;;-147.06;71.81
54453;BME280;40363;52.270;10.546;2022-08-19T01:03:09;75096.00;;;-147.06;72.19
54453;BME280;40363;52.270;10.546;2022-08-19T01:05:36;75093.94;;;-147.06;72.18
54453;BME280;40363;52.270;10.546;2022-08-19T01:08:05;75100.09;;;-147.06;72.17
54453;BME280;40363;52.270;10.546;2022-08-19T01:10:36;75091.88;;;-147.06;72.31
54453;BME280;40363;52.270;10.546;2022-08-19T01:13:04;75098.03;;;-147.06;72.40
54453;BME280;40363;52.270;10.546;2022-08-19T01:15:34;75089.81;;;-147.06;72.01
54453;BME280;40363;52.270;10.546;2022-08-19T01:18:06;75100.09;;;-147.06;71.67
54453;BME280;40363;52.270;10.546;2022-08-19T01:20:33;75104.22;;;-147.06;72.20
54453;BME280;40363;52.270;10.546;2022-08-19T01:23:03;75104.22;;;-147.06;71.89
54453;BME280;40363;52.270;10.546;2022-08-19T01:25:32;75108.31;;;-147.06;72.09
54453;BME280;40363;52.270;10.546;2022-08-19T01:27:59;75104.22;;;-147.06;71.69
54453;BME280;40363;52.270;10.546;2022-08-19T01:30:27;75098.03;;;-147.06;71.98
54453;BME280;40363;52.270;10.546;2022-08-19T01:32:55;75093.94;;;-147.06;71.42
54453;BME280;40363;52.270;10.546;2022-08-19T01:35:24;75108.31;;;-147.06;71.70
54453;BME280;40363;52.270;10.546;2022-08-19T01:37:54;75110.38;;;-147.06;71.50
54453;BME280;40363;52.270;10.546;2022-08-19T01:40:26;75102.16;;;-147.06;71.28
54453;BME280;40363;52.270;10.546;2022-08-19T01:42:53;75112.44;;;-147.06;71.78
54453;BME280;40363;52.270;10.546;2022-08-19T01:45:22;75116.53;;;-147.06;71.74
54453;BME280;40363;52.270;10.546;2022-08-19T01:47:49;75112.44;;;-147.06;71.55
54453;BME280;40363;52.270;10.546;2022-08-19T01:50:16;75102.16;;;-147.06;71.44
54453;BME280;40363;52.270;10.546;2022-08-19T01:52:43;75106.25;;;-147.06;71.18
54453;BME280;40363;52.270;10.546;2022-08-19T01:55:14;75108.31;;;-147.06;71.48
54453;BME280;40363;52.270;10.546;2022-08-19T01:57:44;75106.25;;;-147.06;71.37
54453;BME280;40363;52.270;10.546;2022-08-19T02:00:14;75104.22;;;-147.06;71.14
54453;BME280;40363;52.270;10.546;2022-08-19T02:02:41;75120.66;;;-147.06;71.26
54453;BME280;40363;52.270;10.546;2022-08-19T02:05:09;75104.22;;;-147.06;71.22
54453;BME280;40363;52.270;10.546;2022-08-19T02:07:36;75102.16;;;-147.06;70.87
54453;BME280;40363;52.270;10.546;2022-08-19T02:10:06;75104.22;;;-147.06;70.71
54453;BME280;40363;52.270;10.546;2022-08-19T02:12:33;75108.31;;;-147.06;70.99
54453;BME280;40363;52.270;10.546;2022-08-19T02:15:02;75120.66;;;-147.06;71.24
54453;BME280;40363;52.270;10.546;2022-08-19T02:17:30;75122.69;;;-147.06;71.05
54453;BME280;40363;52.270;10.546;2022-08-19T02:19:57;75143.25;;;-147.06;71.70
54453;BME280;40363;52.270;10.546;2022-08-19T02:22:24;75143.25;;;-147.06;71.32
54453;BME280;40363;52.270;10.546;2022-08-19T02:24:50;75149.41;;;-147.06;71.31
54453;BME280;40363;52.270;10.546;2022-08-19T02:27:17;75153.53;;;-147.06;71.23
54453;BME280;40363;52.270;10.546;2022-08-19T02:29:46;75143.25;;;-147.06;70.91
54453;BME280;40363;52.270;10.546;2022-08-19T02:32:14;75157.63;;;-147.06;71.57
54453;BME280;40363;52.270;10.546;2022-08-19T02:34:41;75153.53;;;-147.06;71.72
54453;BME280;40363;52.270;10.546;2022-08-19T02:37:08;75151.47;;;-147.06;71.62
54453;BME280;40363;52.270;10.546;2022-08-19T02:39:55;75145.31;;;-147.06;71.67
54453;BME280;40363;52.270;10.546;2022-08-19T02:42:21;75149.41;;;-147.06;71.81
54453;BME280;40363;52.270;10.546;2022-08-19T02:44:47;75147.34;;;-147.06;71.95
54453;BME280;40363;52.270;10.546;2022-08-19T02:47:15;75167.91;;;-147.06;72.50
54453;BME280;40363;52.270;10.546;2022-08-19T02:49:44;75182.28;;;-147.06;72.67
54453;BME280;40363;52.270;10.546;2022-08-19T02:52:10;75176.13;;;-147.06;72.45
54453;BME280;40363;52.270;10.546;2022-08-19T02:54:38;75184.34;;;-147.06;72.71
54453;BME280;40363;52.270;10.546;2022-08-19T02:57:05;75186.41;;;-147.06;72.57
54453;BME280;40363;52.270;10.546;2022-08-19T02:59:32;75178.19;;;-147.06;72.09
54453;BME280;40363;52.270;10.546;2022-08-19T03:01:59;75196.66;;;-147.06;72.60
54453;BME280;40363;52.270;10.546;2022-08-19T03:04:27;75215.16;;;-147.06;73.08
54453;BME280;40363;52.270;10.546;2022-08-19T03:06:54;75202.84;;;-147.06;73.01
54453;BME280;40363;52.270;10.546;2022-08-19T03:09:22;75186.41;;;-147.06;72.43
54453;BME280;40363;52.270;10.546;2022-08-19T03:11:48;75202.84;;;-147.06;73.04
54453;BME280;40363;52.270;10.546;2022-08-19T03:14:15;75206.94;;;-147.06;73.57
54453;BME280;40363;52.270;10.546;2022-08-19T03:16:46;75206.94;;;-147.06;73.35
54453;BME280;40363;52.270;10.546;2022-08-19T03:19:15;75225.44;;;-147.06;73.52
54453;BME280;40363;52.270;10.546;2022-08-19T03:21:43;75239.81;;;-147.06;73.76
54453;BME280;40363;52.270;10.546;2022-08-19T03:24:12;75239.81;;;-147.06;73.95
54453;BME280;40363;52.270;10.546;2022-08-19T03:26:39;75225.44;;;-147.06;73.76
54453;BME280;40363;52.270;10.546;2022-08-19T03:29:07;75219.28;;;-147.06;73.39
54453;BME280;40363;52.270;10.546;2022-08-19T03:31:34;75211.06;;;-147.06;73.22
54453;BME280;40363;52.270;10.546;2022-08-19T03:34:01;75211.06;;;-147.06;72.95
54453;BME280;40363;52.270;10.546;2022-08-19T03:36:27;75231.59;;;-147.06;73.55
54453;BME280;40363;52.270;10.546;2022-08-19T03:38:58;75229.53;;;-147.06;73.53
54453;BME280;40363;52.270;10.546;2022-08-19T03:41:27;75252.16;;;-147.06;73.78
54453;BME280;40363;52.270;10.546;2022-08-19T03:43:54;75245.97;;;-147.06;73.95
54453;BME280;40363;52.270;10.546;2022-08-19T03:46:23;75258.31;;;-147.06;74.05
54453;BME280;40363;52.270;10.546;2022-08-19T03:48:51;75248.03;;;-147.06;74.07
54453;BME280;40363;52.270;10.546;2022-08-19T03:51:21;75239.81;;;-147.06;73.95
54453;BME280;40363;52.270;10.546;2022-08-19T03:53:48;75266.53;;;-147.06;74.45
54453;BME280;40363;52.270;10.546;2022-08-19T03:56:17;75264.47;;;-147.06;74.37
54453;BME280;40363;52.270;10.546;2022-08-19T03:58:44;75262.41;;;-147.06;74.37
54453;BME280;40363;52.270;10.546;2022-08-19T04:01:14;75256.25;;;-147.06;74.40
54453;BME280;40363;52.270;10.546;2022-08-19T04:03:43;75252.16;;;-147.06;74.24
54453;BME280;40363;52.270;10.546;2022-08-19T04:06:13;75256.25;;;-147.06;74.19
54453;BME280;40363;52.270;10.546;2022-08-19T04:08:40;75264.47;;;-147.06;74.36
54453;BME280;40363;52.270;10.546;2022-08-19T04:11:07;75260.38;;;-147.06;74.29
54453;BME280;40363;52.270;10.546;2022-08-19T04:13:36;75272.69;;;-147.06;74.74
54453;BME280;40363;52.270;10.546;2022-08-19T04:16:03;75282.97;;;-147.06;74.69
54453;BME280;40363;52.270;10.546;2022-08-19T04:18:30;75280.91;;;-147.06;74.43
54453;BME280;40363;52.270;10.546;2022-08-19T04:20:58;75289.13;;;-147.06;74.31
54453;BME280;40363;52.270;10.546;2022-08-19T04:23:25;75297.34;;;-147.06;74.58
54453;BME280;40363;52.270;10.546;2022-08-19T04:25:53;75301.47;;;-147.06;74.90
54453;BME280;40363;52.270;10.546;2022-08-19T04:28:21;75293.25;;;-147.06;74.89
54453;BME280;40363;52.270;10.546;2022-08-19T04:30:51;75305.56;;;-147.06;75.07
54453;BME280;40363;52.270;10.546;2022-08-19T04:33:19;75301.47;;;-147.06;75.14
54453;BME280;40363;52.270;10.546;2022-08-19T04:35:49;75303.53;;;-147.06;75.27
54453;BME280;40363;52.270;10.546;2022-08-19T04:38:18;75305.56;;;-147.06;74.91
54453;BME280;40363;52.270;10.546;2022-08-19T04:40:51;75303.53;;;-147.06;74.50
54453;BME280;40363;52.270;10.546;2022-08-19T04:43:41;75313.78;;;-147.06;74.63
54453;BME280;40363;52.270;10.546;2022-08-19T04:46:12;75309.69;;;-147.06;74.30
54453;BME280;40363;52.270;10.546;2022-08-19T04:48:40;75303.53;;;-147.06;74.19
54453;BME280;40363;52.270;10.546;2022-08-19T04:51:09;75315.84;;;-147.06;74.07
54453;BME280;40363;52.270;10.546;2022-08-19T04:53:38;75313.78;;;-147.06;74.29
54453;BME280;40363;52.270;10.546;2022-08-19T04:56:06;75332.28;;;-147.06;74.39
54453;BME280;40363;52.270;10.546;2022-08-19T04:58:34;75313.78;;;-147.06;74.32
54453;BME280;40363;52.270;10.546;2022-08-19T05:01:01;75305.56;;;-147.06;74.32
54453;BME280;40363;52.270;10.546;2022-08-19T05:03:30;75317.91;;;-147.06;74.22
54453;BME280;40363;52.270;10.546;2022-08-19T05:06:03;75322.00;;;-147.06;74.51
54453;BME280;40363;52.270;10.546;2022-08-19T05:08:30;75319.94;;;-147.06;74.47
54453;BME280;40363;52.270;10.546;2022-08-19T05:10:56;75326.13;;;-147.06;74.59
54453;BME280;40363;52.270;10.546;2022-08-19T05:13:23;75326.13;;;-147.06;74.75
54453;BME280;40363;52.270;10.546;2022-08-19T05:15:54;75309.69;;;-147.06;74.53
54453;BME280;40363;52.270;10.546;2022-08-19T05:18:20;75328.19;;;-147.06;74.90
54453;BME280;40363;52.270;10.546;2022-08-19T05:21:07;75342.56;;;-147.06;75.38
54453;BME280;40363;52.270;10.546;2022-08-19T05:23:52;75340.50;;;-147.06;75.44
54453;BME280;40363;52.270;10.546;2022-08-19T05:26:18;75354.88;;;-147.06;75.88
54453;BME280;40363;52.270;10.546;2022-08-19T05:28:45;75346.66;;;-147.06;75.60
54453;BME280;40363;52.270;10.546;2022-08-19T05:31:11;75342.56;;;-147.06;75.60
54453;BME280;40363;52.270;10.546;2022-08-19T05:33:38;75334.34;;;-147.06;75.43
54453;BME280;40363;52.270;10.546;2022-08-19T05:36:07;75326.13;;;-147.06;75.13
54453;BME280;40363;52.270;10.546;2022-08-19T05:38:34;75322.00;;;-147.06;74.73
54453;BME280;40363;52.270;10.546;2022-08-19T05:41:06;75319.94;;;-147.06;74.38
54453;BME280;40363;52.270;10.546;2022-08-19T05:43:33;75322.00;;;-147.06;74.42
54453;BME280;40363;52.270;10.546;2022-08-19T05:46:00;75324.06;;;-147.06;74.81
54453;BME280;40363;52.270;10.546;2022-08-19T05:48:26;75334.34;;;-147.06;74.61
54453;BME280;40363;52.270;10.546;2022-08-19T05:50:53;75342.56;;;-147.06;74.78
54453;BME280;40363;52.270;10.546;2022-08-19T05:53:21;75330.22;;;-147.06;74.69
54453;BME280;40363;52.270;10.546;2022-08-19T05:55:48;75326.13;;;-147.06;74.38
54453;BME280;40363;52.270;10.546;2022-08-19T05:58:14;75330.22;;;-147.06;74.47
54453;BME280;40363;52.270;10.546;2022-08-19T06:00:42;75334.34;;;-147.06;74.27
54453;BME280;40363;52.270;10.546;2022-08-19T06:03:09;75328.19;;;-147.06;74.21
54453;BME280;40363;52.270;10.546;2022-08-19T06:05:36;75328.19;;;-147.06;74.03
54453;BME280;40363;52.270;10.546;2022-08-19T06:08:03;75326.13;;;-147.06;74.16
54453;BME280;40363;52.270;10.546;2022-08-19T06:10:32;75332.28;;;-147.06;74.13
54453;BME280;40363;52.270;10.546;2022-08-19T06:12:58;75330.22;;;-147.06;73.81
54453;BME280;40363;52.270;10.546;2022-08-19T06:15:25;75328.19;;;-147.06;73.76
54453;BME280;40363;52.270;10.546;2022-08-19T06:17:53;75330.22;;;-147.06;73.65
54453;BME280;40363;52.270;10.546;2022-08-19T06:20:19;75326.13;;;-147.06;73.37
54453;BME280;40363;52.270;10.546;2022-08-19T06:22:50;75334.34;;;-147.06;73.47
54453;BME280;40363;52.270;10.546;2022-08-19T06:25:17;75344.63;;;-147.06;73.41
54453;BME280;40363;52.270;10.546;2022-08-19T06:27:45;75338.44;;;-147.06;73.39
54453;BME280;40363;52.270;10.546;2022-08-19T06:30:12;75344.63;;;-147.06;73.24
54453;BME280;40363;52.270;10.546;2022-08-19T06:32:39;75356.94;;;-147.06;73.40
54453;BME280;40363;52.270;10.546;2022-08-19T06:35:07;75367.22;;;-147.06;73.60
54453;BME280;40363;52.270;10.546;2022-08-19T06:37:34;75340.50;;;-147.06;72.85
54453;BME280;40363;52.270;10.546;2022-08-19T06:40:00;75338.44;;;-147.06;73.06
54453;BME280;40363;52.270;10.546;2022-08-19T06:42:29;75322.00;;;-147.06;71.53
54453;BME280;40363;52.270;10.546;2022-08-19T06:44:57;75317.91;;;-147.06;71.42
54453;BME280;40363;52.270;10.546;2022-08-19T06:47:24;75303.53;;;-147.06;70.67
54453;BME280;40363;52.270;10.546;2022-08-19T06:49:53;75295.28;;;-147.06;70.25
54453;BME280;40363;52.270;10.546;2022-08-19T06:52:20;75276.81;;;-147.06;69.13
54453;BME280;40363;52.270;10.546;2022-08-19T06:54:48;75309.69;;;-147.06;69.90
54453;BME280;40363;52.270;10.546;2022-08-19T06:57:15;75301.47;;;-147.06;69.92
54453;BME280;40363;52.270;10.546;2022-08-19T06:59:42;75322.00;;;-147.06;69.92
54453;BME280;40363;52.270;10.546;2022-08-19T07:02:10;75315.84;;;-147.06;69.76
54453;BME280;40363;52.270;10.546;2022-08-19T07:04:37;75317.91;;;-147.06;69.74
54453;BME280;40363;52.270;10.546;2022-08-19T07:07:06;75317.91;;;-147.06;69.30
54453;BME280;40363;52.270;10.546;2022-08-19T07:09:36;75313.78;;;-147.06;69.54
54453;BME280;40363;52.270;10.546;2022-08-19T07:12:05;75324.06;;;-147.06;69.53
54453;BME280;40363;52.270;10.546;2022-08-19T07:14:33;75346.66;;;-147.06;70.10
54453;BME280;40363;52.270;10.546;2022-08-19T07:17:03;75326.13;;;-147.06;69.41
54453;BME280;40363;52.270;10.546;2022-08-19T07:19:32;75342.56;;;-147.06;69.44
54453;BME280;40363;52.270;10.546;2022-08-19T07:22:04;75350.78;;;-147.06;69.85
54453;BME280;40363;52.270;10.546;2022-08-19T07:24:32;75356.94;;;-147.06;70.13
54453;BME280;40363;52.270;10.546;2022-08-19T07:27:01;75328.19;;;-147.06;69.06
54453;BME280;40363;52.270;10.546;2022-08-19T07:29:31;75342.56;;;-147.06;69.23
54453;BME280;40363;52.270;10.546;2022-08-19T07:31:59;75336.41;;;-147.06;69.28
54453;BME280;40363;52.270;10.546;2022-08-19T07:34:28;75307.63;;;-147.06;68.08
54453;BME280;40363;52.270;10.546;2022-08-19T07:36:56;75322.00;;;-147.06;67.99
54453;BME280;40363;52.270;10.546;2022-08-19T07:39:28;75317.91;;;-147.06;67.99
54453;BME280;40363;52.270;10.546;2022-08-19T07:41:57;75340.50;;;-147.06;68.56
54453;BME280;40363;52.270;10.546;2022-08-19T07:44:26;75330.22;;;-147.06;68.04
54453;BME280;40363;52.270;10.546;2022-08-19T07:46:54;75350.78;;;-147.06;68.14
54453;BME280;40363;52.270;10.546;2022-08-19T07:49:22;75365.16;;;-147.06;68.64
54453;BME280;40363;52.270;10.546;2022-08-19T07:51:51;75359.00;;;-147.06;68.29
54453;BME280;40363;52.270;10.546;2022-08-19T07:54:22;75342.56;;;-147.06;67.68
54453;BME280;40363;52.270;10.546;2022-08-19T07:56:50;75346.66;;;-147.06;67.66
54453;BME280;40363;52.270;10.546;2022-08-19T07:59:18;75336.41;;;-147.06;67.43
54453;BME280;40363;52.270;10.546;2022-08-19T08:01:46;75346.66;;;-147.06;67.56
54453;BME280;40363;52.270;10.546;2022-08-19T08:04:13;75326.13;;;-147.06;67.11
54453;BME280;40363;52.270;10.546;2022-08-19T08:06:57;75338.44;;;-147.06;67.05
54453;BME280;40363;52.270;10.546;2022-08-19T08:09:44;75342.56;;;-147.06;67.24
54453;BME280;40363;52.270;10.546;2022-08-19T08:12:13;75359.00;;;-147.06;67.66
54453;BME280;40363;52.270;10.546;2022-08-19T08:14:44;75344.63;;;-147.06;67.48
54453;BME280;40363;52.270;10.546;2022-08-19T08:17:14;75311.75;;;-147.06;66.83
54453;BME280;40363;52.270;10.546;2022-08-19T08:19:42;75315.84;;;-147.06;66.39
54453;BME280;40363;52.270;10.546;2022-08-19T08:22:10;75324.06;;;-147.06;67.08
54453;BME280;40363;52.270;10.546;2022-08-19T08:25:03;75317.91;;;-147.06;67.24
54453;BME280;40363;52.270;10.546;2022-08-19T08:27:30;75309.69;;;-147.06;66.67
54453;BME280;40363;52.270;10.546;2022-08-19T08:29:57;75326.13;;;-147.06;67.08
54453;BME280;40363;52.270;10.546;2022-08-19T08:32:23;75313.78;;;-147.06;66.97
54453;BME280;40363;52.270;10.546;2022-08-19T08:34:50;75322.00;;;-147.06;67.21
54453;BME280;40363;52.270;10.546;2022-08-19T08:37:18;75307.63;;;-147.06;66.70
54453;BME280;40363;52.270;10.546;2022-08-19T08:39:45;75280.91;;;-147.06;65.69
54453;BME280;40363;52.270;10.546;2022-08-19T08:42:19;75260.38;;;-147.06;64.96
54453;BME280;40363;52.270;10.546;2022-08-19T08:44:52;75272.69;;;-147.06;65.01
54453;BME280;40363;52.270;10.546;2022-08-19T08:47:21;75280.91;;;-147.06;65.07
54453;BME280;40363;52.270;10.546;2022-08-19T08:49:54;75285.03;;;-147.06;64.96
54453;BME280;40363;52.270;10.546;2022-08-19T08:52:25;75280.91;;;-147.06;64.88
54453;BME280;40363;52.270;10.546;2022-08-19T08:54:54;75254.19;;;-147.06;64.13
54453;BME280;40363;52.270;10.546;2022-08-19T08:57:29;75245.97;;;-147.06;64.05
54453;BME280;40363;52.270;10.546;2022-08-19T09:00:00;75260.38;;;-147.06;64.10
54453;BME280;40363;52.270;10.546;2022-08-19T09:02:29;75231.59;;;-147.06;63.71
54453;BME280;40363;52.270;10.546;2022-08-19T09:04:56;75221.31;;;-147.06;63.04
54453;BME280;40363;52.270;10.546;2022-08-19T09:07:29;75217.22;;;-147.06;62.99
54453;BME280;40363;52.270;10.546;2022-08-19T09:10:04;75192.56;;;-147.06;62.27
54453;BME280;40363;52.270;10.546;2022-08-19T09:12:38;75204.88;;;-147.06;61.69
54453;BME280;40363;52.270;10.546;2022-08-19T09:15:09;75202.84;;;-147.06;61.95
54453;BME280;40363;52.270;10.546;2022-08-19T09:17:36;75196.66;;;-147.06;61.77
54453;BME280;40363;52.270;10.546;2022-08-19T09:20:06;75178.19;;;-147.06;61.43
54453;BME280;40363;52.270;10.546;2022-08-19T09:22:40;75204.88;;;-147.06;61.40
54453;BME280;40363;52.270;10.546;2022-08-19T09:25:12;75233.66;;;-147.06;61.51
54453;BME280;40363;52.270;10.546;2022-08-19T09:27:41;75235.72;;;-147.06;61.49
54453;BME280;40363;52.270;10.546;2022-08-19T09:30:11;75233.66;;;-147.06;61.85
54453;BME280;40363;52.270;10.546;2022-08-19T09:32:38;75252.16;;;-147.06;62.03
54453;BME280;40363;52.270;10.546;2022-08-19T09:35:07;75215.16;;;-147.06;61.58
54453;BME280;40363;52.270;10.546;2022-08-19T09:37:34;75221.31;;;-147.06;61.56
54453;BME280;40363;52.270;10.546;2022-08-19T09:40:02;75239.81;;;-147.06;61.64
54453;BME280;40363;52.270;10.546;2022-08-19T09:42:28;75211.06;;;-147.06;61.02
54453;BME280;40363;52.270;10.546;2022-08-19T09:44:56;75248.03;;;-147.06;61.66
54453;BME280;40363;52.270;10.546;2022-08-19T09:47:23;75190.50;;;-147.06;60.70
54453;BME280;40363;52.270;10.546;2022-08-19T09:49:49;75180.22;;;-147.06;60.29
54453;BME280;40363;52.270;10.546;2022-08-19T09:52:19;75192.56;;;-147.06;60.39
54453;BME280;40363;52.270;10.546;2022-08-19T09:54:45;75213.09;;;-147.06;60.47
54453;BME280;40363;52.270;10.546;2022-08-19T09:57:12;75194.63;;;-147.06;60.43
54453;BME280;40363;52.270;10.546;2022-08-19T09:59:39;75194.63;;;-147.06;60.65
54453;BME280;40363;52.270;10.546;2022-08-19T10:02:07;75202.84;;;-147.06;60.70
54453;BME280;40363;52.270;10.546;2022-08-19T10:04:35;75215.16;;;-147.06;60.63
54453;BME280;40363;52.270;10.546;2022-08-19T10:07:15;75198.72;;;-147.06;60.48
54453;BME280;40363;52.270;10.546;2022-08-19T10:09:42;75184.34;;;-147.06;60.53
54453;BME280;40363;52.270;10.546;2022-08-19T10:12:09;75176.13;;;-147.06;60.07
54453;BME280;40363;52.270;10.546;2022-08-19T10:14:35;75172.00;;;-147.06;60.21
54453;BME280;40363;52.270;10.546;2022-08-19T10:17:02;75149.41;;;-147.06;59.67
54453;BME280;40363;52.270;10.546;2022-08-19T10:19:30;75161.75;;;-147.06;59.51
54453;BME280;40363;52.270;10.546;2022-08-19T10:22:03;75135.03;;;-147.06;59.03
54453;BME280;40363;52.270;10.546;2022-08-19T10:24:30;75157.63;;;-147.06;59.44
54453;BME280;40363;52.270;10.546;2022-08-19T10:26:57;75102.16;;;-147.06;58.28
54453;BME280;40363;52.270;10.546;2022-08-19T10:29:23;75100.09;;;-147.06;57.97
54453;BME280;40363;52.270;10.546;2022-08-19T10:31:53;75087.78;;;-147.06;58.16
54453;BME280;40363;52.270;10.546;2022-08-19T10:34:21;75096.00;;;-147.06;58.07
54453;BME280;40363;52.270;10.546;2022-08-19T10:36:49;75112.44;;;-147.06;58.75
54453;BME280;40363;52.270;10.546;2022-08-19T10:39:16;75114.47;;;-147.06;58.83
54453;BME280;40363;52.270;10.546;2022-08-19T10:41:43;75096.00;;;-147.06;58.75
54453;BME280;40363;52.270;10.546;2022-08-19T10:44:12;75063.13;;;-147.06;57.89
54453;BME280;40363;52.270;10.546;2022-08-19T10:46:40;75091.88;;;-147.06;58.60
54453;BME280;40363;52.270;10.546;2022-08-19T10:49:10;75091.88;;;-147.06;58.12
54453;BME280;40363;52.270;10.546;2022-08-19T10:51:37;75081.59;;;-147.06;57.97
54453;BME280;40363;52.270;10.546;2022-08-19T10:54:23;75087.78;;;-147.06;58.09
54453;BME280;40363;52.270;10.546;2022-08-19T10:57:10;75046.69;;;-147.06;57.56
54453;BME280;40363;52.270;10.546;2022-08-19T10:59:36;75019.97;;;-147.06;57.15
54453;BME280;40363;52.270;10.546;2022-08-19T11:02:07;75005.59;;;-147.06;56.80
54453;BME280;40363;52.270;10.546;2022-08-19T11:04:35;74997.38;;;-147.06;56.67
54453;BME280;40363;52.270;10.546;2022-08-19T11:07:02;74987.09;;;-147.06;56.50
54453;BME280;40363;52.270;10.546;2022-08-19T11:09:35;74935.72;;;-147.06;55.90
54453;BME280;40363;52.270;10.546;2022-08-19T11:12:03;74980.94;;;-147.06;56.28
54453;BME280;40363;52.270;10.546;2022-08-19T11:14:30;74980.94;;;-147.06;56.43
54453;BME280;40363;52.270;10.546;2022-08-19T11:16:58;74978.88;;;-147.06;55.86
54453;BME280;40363;52.270;10.546;2022-08-19T11:19:25;74985.03;;;-147.06;56.85
54453;BME280;40363;52.270;10.546;2022-08-19T11:21:52;74943.94;;;-147.06;55.61
54453;BME280;40363;52.270;10.546;2022-08-19T11:24:20;74948.06;;;-147.06;55.90
54453;BME280;40363;52.270;10.546;2022-08-19T11:26:50;74892.59;;;-147.06;54.67
54453;BME280;40363;52.270;10.546;2022-08-19T11:29:19;74904.91;;;-147.06;54.97
54453;BME280;40363;52.270;10.546;2022-08-19T11:31:48;74921.34;;;-147.06;55.36
54453;BME280;40363;52.270;10.546;2022-08-19T11:34:17;74935.72;;;-147.06;55.34
54453;BME280;40363;52.270;10.546;2022-08-19T11:36:46;74927.50;;;-147.06;55.80
54453;BME280;40363;52.270;10.546;2022-08-19T11:39:16;74939.84;;;-147.06;56.02
54453;BME280;40363;52.270;10.546;2022-08-19T11:41:43;74956.28;;;-147.06;56.91
54453;BME280;40363;52.270;10.546;2022-08-19T11:44:11;74985.03;;;-147.06;57.88
54453;BME280;40363;52.270;10.546;2022-08-19T11:46:40;74919.28;;;-147.06;56.11
54453;BME280;40363;52.270;10.546;2022-08-19T11:49:11;74886.41;;;-147.06;54.86
54453;BME280;40363;52.270;10.546;2022-08-19T11:51:38;74841.22;;;-147.06;53.96
54453;BME280;40363;52.270;10.546;2022-08-19T11:54:07;74812.47;;;-147.06;53.38
54453;BME280;40363;52.270;10.546;2022-08-19T11:56:34;74830.94;;;-147.06;53.13
54453;BME280;40363;52.270;10.546;2022-08-19T11:59:02;74824.78;;;-147.06;53.06
54453;BME280;40363;52.270;10.546;2022-08-19T12:01:31;74857.66;;;-147.06;53.52
54453;BME280;40363;52.270;10.546;2022-08-19T12:03:58;74851.50;;;-147.06;54.14
54453;BME280;40363;52.270;10.546;2022-08-19T12:06:27;74800.13;;;-147.06;53.55
54453;BME280;40363;52.270;10.546;2022-08-19T12:08:55;74752.88;;;-147.06;52.22
54453;BME280;40363;52.270;10.546;2022-08-19T12:11:22;74748.78;;;-147.06;52.75
54453;BME280;40363;52.270;10.546;2022-08-19T12:13:48;74763.16;;;-147.06;51.79
54453;BME280;40363;52.270;10.546;2022-08-19T12:16:17;74789.84;;;-147.06;52.50
54453;BME280;40363;52.270;10.546;2022-08-19T12:18:46;74802.19;;;-147.06;53.02
54453;BME280;40363;52.270;10.546;2022-08-19T12:21:14;74793.97;;;-147.06;53.71
54453;BME280;40363;52.270;10.546;2022-08-19T12:23:41;74816.56;;;-147.06;54.26
54453;BME280;40363;52.270;10.546;2022-08-19T12:26:10;74820.69;;;-147.06;53.22
54453;BME280;40363;52.270;10.546;2022-08-19T12:28:37;74771.38;;;-147.06;52.34
54453;BME280;40363;52.270;10.546;2022-08-19T12:31:04;74726.16;;;-147.06;51.34
54453;BME280;40363;52.270;10.546;2022-08-19T12:33:32;74734.38;;;-147.06;51.46
54453;BME280;40363;52.270;10.546;2022-08-19T12:36:03;74730.28;;;-147.06;51.37
54453;BME280;40363;52.270;10.546;2022-08-19T12:38:31;74740.56;;;-147.06;51.62